WetterOnline ( https://www.wetteronline.ch )

Wetter aktuell Greifswald

Aktuelles Wetter: Greifswald (6m)

6-stündlich | Neueste Meldungen
Ortszeit Temperatur Wetter
Di, 21.05. 2:00 12.0° C leicht bewölkt
Mo, 20.05. 20:00 13.3° C Gewitter
Mo, 20.05. 14:00 14.7° C Nebel (zunehmend)
Mo, 20.05. 8:00 11.8° C Nebel
Mo, 20.05. 2:00 11.2° C Nebel (abnehmend)
So, 19.05. 20:00 11.7° C bedeckt
So, 19.05. 14:00 13.8° C bewölkt
So, 19.05. 8:00 11.1° C Nebel
Ortszeit Temperatur Wetter
Di, 21.05. 6:30 12.3° C Nebel
Di, 21.05. 6:20 12.3° C Nebel
Di, 21.05. 6:10 12.1° C Nebel
Di, 21.05. 6:00 12.1° C Nebel
Di, 21.05. 5:50 12.1° C Nebel
Di, 21.05. 5:40 12.0° C Nebel
Di, 21.05. 5:30 12.0° C Nebel
Di, 21.05. 5:00 11.8° C Nebel (zunehmend)
Di, 21.05. 4:30 11.9° C bedeckt
Di, 21.05. 4:00 12.0° C bedeckt
Di, 21.05. 3:30 11.9° C bedeckt
Ortszeit Relative Feuchte Sichtweite
Di, 21.05. 2:00 96% 6 km
Mo, 20.05. 20:00 96% 3.0 km
Mo, 20.05. 14:00 93% 0.8 km
Mo, 20.05. 8:00 99% 0.2 km
Mo, 20.05. 2:00 99% 0.3 km
So, 19.05. 20:00 97% 1.9 km
So, 19.05. 14:00 88% 13 km
So, 19.05. 8:00 100% 0.3 km
Ortszeit Relative Feuchte Sichtweite
Di, 21.05. 6:30 100% 0.2 km
Di, 21.05. 6:20 100% -
Di, 21.05. 6:10 100% -
Di, 21.05. 6:00 100% 0.2 km
Di, 21.05. 5:50 100% -
Di, 21.05. 5:40 100% -
Di, 21.05. 5:30 100% 0.2 km
Di, 21.05. 5:00 100% 0.2 km
Di, 21.05. 4:30 99% 0.4 km
Di, 21.05. 4:00 97% 4.0 km
Di, 21.05. 3:30 96% 5.0 km
Ortszeit Niederschlagsmenge Niederschlagsart
Di, 21.05. 2:00 9 l/m2 in 6 Std. Gewitter, Schauer
Mo, 20.05. 20:00 3 l/m2 in 12 Std. Regenschauer
Mo, 20.05. 14:00 0.0 l/m2 in 6 Std. Nebel
Mo, 20.05. 8:00 0.0 l/m2 in 12 Std. Nebel
Mo, 20.05. 2:00 0.0 l/m2 in 6 Std. Nebel
So, 19.05. 20:00 0.0 l/m2 in 12 Std. -
So, 19.05. 14:00 0.0 l/m2 in 6 Std. Nebel
So, 19.05. 8:00 0.0 l/m2 in 12 Std. Nebel
Ortszeit Niederschlagsmenge Niederschlagsart
Di, 21.05. 6:30 0.0 l/m2 in 1 Std. -
Di, 21.05. 6:20 keine Meldung -
Di, 21.05. 6:10 keine Meldung -
Di, 21.05. 6:00 0.0 l/m2 in 1 Std. Nebel
Di, 21.05. 5:50 keine Meldung -
Di, 21.05. 5:40 keine Meldung -
Di, 21.05. 5:30 0.1 l/m2 in 1 Std. -
Di, 21.05. 5:00 0.0 l/m2 in 1 Std. -
Di, 21.05. 4:30 0.0 l/m2 in 1 Std. -
Di, 21.05. 4:00 0.0 l/m2 in 1 Std. -
Di, 21.05. 3:30 0.0 l/m2 in 1 Std. -
Ortszeit Stärke Spitze Richtung
km/h Bft. km/h Grad Sektor
Di, 21.05. 2:00 11 2 36 60° NO
Mo, 20.05. 20:00 9 2 35 20° N
Mo, 20.05. 14:00 18 3 25 40° NO
Mo, 20.05. 8:00 11 2 22 40° NO
Mo, 20.05. 2:00 11 2 29 50° NO
So, 19.05. 20:00 15 3 39 50° NO
So, 19.05. 14:00 17 3 30 40° NO
So, 19.05. 8:00 14 3 29 60° NO
Ortszeit Stärke Spitze Richtung
km/h Bft. km/h Grad Sektor
Di, 21.05. 6:30 2 1 6 200° S
Di, 21.05. 6:20 2 1 - 200° S
Di, 21.05. 6:10 2 1 - 290° W
Di, 21.05. 6:00 4 1 7 240° SW
Di, 21.05. 5:50 4 1 - 240° SW
Di, 21.05. 5:40 4 1 - 230° SW
Di, 21.05. 5:30 4 1 7 240° SW
Di, 21.05. 5:00 2 1 7 340° N
Di, 21.05. 4:30 4 1 7 310° NW
Di, 21.05. 4:00 4 1 11 160° S
Di, 21.05. 3:30 4 1 11 120° SO
Ortszeit Untergrenze Bedeckung Gattung
total tief tief mittel hoch
Di, 21.05. 2:00 990 m 5/8 3/8 Cu - Ci
Mo, 20.05. 20:00 1800 m 8/8 7/8 Cb - -
Mo, 20.05. 14:00 60 m 8/8 8/8 St - -
Mo, 20.05. 8:00 30 m 8/8 8/8 - - -
Mo, 20.05. 2:00 <30 m 8/8 0/8 - - -
So, 19.05. 20:00 30 m 8/8 8/8 St - -
So, 19.05. 14:00 60 m 7/8 7/8 St - -
So, 19.05. 8:00 <30 m 8/8 0/8 - - -
Ortszeit Bedeckungsgrad in Achtel und Wolkenuntergrenze
Di, 21.05. 6:30 8
Di, 21.05. 6:20 8(<30m)
Di, 21.05. 6:10 8(<30m)
Di, 21.05. 6:00 8(<30m)
Di, 21.05. 5:50 8(<30m)
Di, 21.05. 5:40 8(<30m)
Di, 21.05. 5:30 8(<30m)
Di, 21.05. 5:00 8(<30m)
Di, 21.05. 4:30 8(30m)
Di, 21.05. 4:00 8(90m)
Di, 21.05. 3:30 8(180m)
Ortszeit Luftdruck NN (hPa) Tendenz (hPa in 3 Std.)
Di, 21.05. 2:00 1004 - 0,1
Mo, 20.05. 20:00 1004 - 0,5
Mo, 20.05. 14:00 1006 - 0,1
Mo, 20.05. 8:00 1006 - 0,3
Mo, 20.05. 2:00 1006 - 1,0
So, 19.05. 20:00 1007 - 1,4
So, 19.05. 14:00 1009 - 0,5
So, 19.05. 8:00 1009 + 0,2
Ortszeit Luftdruck NN (hPa) Tendenz (hPa in 3 Std.)
Di, 21.05. 6:30 1005 + 0,3
Di, 21.05. 6:20 1005 keine Meldung
Di, 21.05. 6:10 1005 keine Meldung
Di, 21.05. 6:00 1005 + 0,4
Di, 21.05. 5:50 1005 keine Meldung
Di, 21.05. 5:40 1005 keine Meldung
Di, 21.05. 5:30 1004 + 0,5
Di, 21.05. 5:00 1004 + 0,4
Di, 21.05. 4:30 1004 0,0
Di, 21.05. 4:00 1004 + 0,3
Di, 21.05. 3:30 1004 + 0,1
Ortszeit Schneehöhe (cm)
Di, 21.05. 2:00 0
Mo, 20.05. 20:00 0
Mo, 20.05. 14:00 0
Mo, 20.05. 8:00 0
Mo, 20.05. 2:00 0
So, 19.05. 20:00 0
So, 19.05. 14:00 0
So, 19.05. 8:00 0
Ortszeit Schneehöhe (cm)
Di, 21.05. 6:30 -
Di, 21.05. 6:20 -
Di, 21.05. 6:10 -
Di, 21.05. 6:00 -
Di, 21.05. 5:50 -
Di, 21.05. 5:40 -
Di, 21.05. 5:30 -
Di, 21.05. 5:00 -
Di, 21.05. 4:30 -
Di, 21.05. 4:00 -
Di, 21.05. 3:30 -
Link zu dieser Seite / Seite empfehlen

Das Wetter in ...